Time,TemperatureF,DewpointF,PressureIn,WindDirection,WindDirectionDegrees,WindSpeedMPH,WindSpeedGustMPH,Humidity,HourlyPrecipIn,Conditions,Clouds,dailyrainin,SoftwareType,DateUTC
2013-08-26 00:02:00,78.3,71.6,29.85,South,180,8.0,9.0,80,0.00,,,0.00,meteohub,2013-08-26 05:02:00,
2013-08-26 00:07:00,78.3,71.6,29.85,South,180,8.0,9.0,80,0.00,,,0.00,meteohub,2013-08-26 05:07:00,
2013-08-26 00:12:00,78.3,71.6,29.85,South,180,8.0,9.0,80,0.00,,,0.00,meteohub,2013-08-26 05:12:00,
2013-08-26 00:17:00,78.1,71.4,29.85,South,180,9.0,9.0,80,0.00,,,0.00,meteohub,2013-08-26 05:17:00,
2013-08-26 00:22:00,78.1,71.4,29.85,South,180,9.0,9.0,80,0.00,,,0.00,meteohub,2013-08-26 05:22:00,
2013-08-26 00:27:00,78.1,71.4,29.85,South,180,9.0,9.0,80,0.00,,,0.00,meteohub,2013-08-26 05:27:00,
2013-08-26 00:32:00,78.1,71.8,29.85,South,180,9.0,11.0,81,0.00,,,0.00,meteohub,2013-08-26 05:32:00,
2013-08-26 00:38:00,78.1,71.8,29.85,South,180,10.0,11.0,81,0.00,,,0.00,meteohub,2013-08-26 05:38:00,
2013-08-26 00:43:00,77.9,71.6,29.85,SE,135,10.0,11.0,81,0.00,,,0.00,meteohub,2013-08-26 05:43:00,
2013-08-26 00:48:00,77.9,71.6,29.85,South,180,9.0,11.0,81,0.00,,,0.00,meteohub,2013-08-26 05:48:00,
2013-08-26 00:53:00,77.9,71.6,29.85,South,180,11.0,11.0,81,0.00,,,0.00,meteohub,2013-08-26 05:53:00,
2013-08-26 00:58:00,77.7,71.4,29.85,South,180,8.0,11.0,81,0.00,,,0.00,meteohub,2013-08-26 05:58:00,
2013-08-26 01:03:00,77.7,71.4,29.85,South,180,9.0,11.0,81,0.00,,,0.00,meteohub,2013-08-26 06:03:00,
2013-08-26 01:08:00,77.5,71.2,29.85,South,180,9.0,11.0,81,0.00,,,0.00,meteohub,2013-08-26 06:08:00,
2013-08-26 01:13:00,77.4,71.1,29.86,South,180,8.0,9.0,81,0.00,,,0.00,meteohub,2013-08-26 06:13:00,
2013-08-26 01:18:00,77.4,71.1,29.86,South,180,7.0,9.0,81,0.00,,,0.00,meteohub,2013-08-26 06:18:00,
2013-08-26 01:23:00,77.2,70.9,29.85,South,180,8.0,9.0,81,0.00,,,0.00,meteohub,2013-08-26 06:23:00,
2013-08-26 01:28:00,77.2,70.9,29.85,South,180,7.0,8.0,81,0.00,,,0.00,meteohub,2013-08-26 06:28:00,
2013-08-26 01:34:00,77.0,70.7,29.85,South,180,7.0,8.0,81,0.00,,,0.00,meteohub,2013-08-26 06:34:00,
2013-08-26 01:39:00,77.0,70.7,29.85,South,180,7.0,8.0,81,0.00,,,0.00,meteohub,2013-08-26 06:39:00,
2013-08-26 01:44:00,76.8,70.9,29.85,South,180,6.0,8.0,82,0.00,,,0.00,meteohub,2013-08-26 06:44:00,
2013-08-26 01:49:00,76.6,70.7,29.85,South,180,5.0,8.0,82,0.00,,,0.00,meteohub,2013-08-26 06:49:00,
2013-08-26 01:54:00,76.3,70.3,29.85,South,180,6.0,8.0,82,0.00,,,0.00,meteohub,2013-08-26 06:54:00,
2013-08-26 01:59:00,76.1,70.2,29.85,South,180,6.0,8.0,82,0.00,,,0.00,meteohub,2013-08-26 06:59:00,
2013-08-26 02:04:00,75.9,70.0,29.84,South,180,6.0,7.0,82,0.00,,,0.00,meteohub,2013-08-26 07:04:00,
2013-08-26 02:09:00,75.9,70.0,29.84,SSE,158,7.0,7.0,82,0.00,,,0.00,meteohub,2013-08-26 07:09:00,
2013-08-26 02:14:00,75.9,70.0,29.85,South,180,7.0,7.0,82,0.00,,,0.00,meteohub,2013-08-26 07:14:00,
2013-08-26 02:19:00,75.9,70.0,29.84,South,180,5.0,7.0,82,0.00,,,0.00,meteohub,2013-08-26 07:19:00,
2013-08-26 02:24:00,75.6,69.6,29.84,South,180,5.0,7.0,82,0.00,,,0.00,meteohub,2013-08-26 07:24:00,
2013-08-26 02:29:00,75.2,69.3,29.84,South,180,5.0,7.0,82,0.00,,,0.00,meteohub,2013-08-26 07:29:00,
2013-08-26 02:35:00,75.0,69.4,29.84,SE,135,5.0,7.0,83,0.00,,,0.00,meteohub,2013-08-26 07:35:00,
2013-08-26 02:40:00,74.8,69.3,29.84,South,180,4.0,6.0,83,0.00,,,0.00,meteohub,2013-08-26 07:40:00,
2013-08-26 02:45:00,74.7,69.1,29.84,South,180,4.0,6.0,83,0.00,,,0.00,meteohub,2013-08-26 07:45:00,
2013-08-26 02:50:00,74.5,68.9,29.84,SE,135,4.0,6.0,83,0.00,,,0.00,meteohub,2013-08-26 07:50:00,
2013-08-26 02:55:00,74.3,68.7,29.84,South,180,4.0,5.0,83,0.00,,,0.00,meteohub,2013-08-26 07:55:00,
2013-08-26 03:00:00,73.9,68.4,29.84,South,180,4.0,5.0,83,0.00,,,0.00,meteohub,2013-08-26 08:00:00,
2013-08-26 03:05:00,73.9,68.4,29.84,South,180,4.0,5.0,83,0.00,,,0.00,meteohub,2013-08-26 08:05:00,
2013-08-26 03:10:00,73.6,68.2,29.84,South,180,4.0,4.0,83,0.00,,,0.00,meteohub,2013-08-26 08:10:00,
2013-08-26 03:15:00,73.6,68.2,29.84,South,180,4.0,5.0,83,0.00,,,0.00,meteohub,2013-08-26 08:15:00,
2013-08-26 03:20:00,73.6,68.2,29.84,South,180,4.0,5.0,83,0.00,,,0.00,meteohub,2013-08-26 08:20:00,
2013-08-26 03:25:00,73.6,68.2,29.84,South,180,6.0,6.0,83,0.00,,,0.00,meteohub,2013-08-26 08:25:00,
2013-08-26 03:30:00,73.6,68.2,29.84,South,180,5.0,6.0,83,0.00,,,0.00,meteohub,2013-08-26 08:30:00,
2013-08-26 03:35:00,73.6,68.2,29.84,South,180,5.0,6.0,83,0.00,,,0.00,meteohub,2013-08-26 08:35:00,
2013-08-26 03:41:00,73.6,68.2,29.84,South,180,4.0,6.0,83,0.00,,,0.00,meteohub,2013-08-26 08:41:00,
2013-08-26 03:46:00,73.4,68.0,29.84,South,180,3.0,6.0,83,0.00,,,0.00,meteohub,2013-08-26 08:46:00,
2013-08-26 03:51:00,73.2,67.5,29.84,SSE,158,4.0,5.0,82,0.00,,,0.00,meteohub,2013-08-26 08:51:00,
2013-08-26 03:56:00,73.0,67.3,29.84,South,180,4.0,4.0,82,0.00,,,0.00,meteohub,2013-08-26 08:56:00,
2013-08-26 04:01:00,72.9,67.1,29.84,South,180,4.0,4.0,82,0.00,,,0.00,meteohub,2013-08-26 09:01:00,
2013-08-26 04:06:00,72.5,66.7,29.84,South,180,3.0,4.0,82,0.00,,,0.00,meteohub,2013-08-26 09:06:00,
2013-08-26 04:11:00,72.5,66.7,29.84,SSE,158,3.0,4.0,82,0.00,,,0.00,meteohub,2013-08-26 09:11:00,
2013-08-26 04:16:00,72.3,66.9,29.83,SE,135,2.0,4.0,83,0.00,,,0.00,meteohub,2013-08-26 09:16:00,
2013-08-26 04:21:00,72.3,66.9,29.84,SE,135,2.0,4.0,83,0.00,,,0.00,meteohub,2013-08-26 09:21:00,
2013-08-26 04:26:00,72.1,66.7,29.84,SE,135,0.0,3.0,83,0.00,,,0.00,meteohub,2013-08-26 09:26:00,
2013-08-26 04:31:00,72.3,66.9,29.83,SE,135,0.0,2.0,83,0.00,,,0.00,meteohub,2013-08-26 09:31:00,
2013-08-26 04:36:00,72.3,66.9,29.84,SE,135,2.0,2.0,83,0.00,,,0.00,meteohub,2013-08-26 09:36:00,
2013-08-26 04:41:00,72.3,66.9,29.84,SE,135,2.0,3.0,83,0.00,,,0.00,meteohub,2013-08-26 09:41:00,
2013-08-26 04:47:00,72.3,66.9,29.84,SE,135,0.0,3.0,83,0.00,,,0.00,meteohub,2013-08-26 09:47:00,
2013-08-26 04:52:00,72.3,66.9,29.84,North,0,3.0,3.0,83,0.00,,,0.00,meteohub,2013-08-26 09:52:00,
2013-08-26 04:57:00,72.7,67.6,29.84,North,0,2.0,3.0,84,0.00,,,0.00,meteohub,2013-08-26 09:57:00,
2013-08-26 05:02:00,73.0,68.0,29.85,North,0,2.0,3.0,84,0.00,,,0.00,meteohub,2013-08-26 10:02:00,
2013-08-26 05:07:00,73.4,68.5,29.84,East,90,0.0,3.0,85,0.00,,,0.00,meteohub,2013-08-26 10:07:00,
2013-08-26 05:12:00,73.4,68.5,29.84,East,90,0.0,2.0,85,0.00,,,0.00,meteohub,2013-08-26 10:12:00,
2013-08-26 05:17:00,73.4,68.5,29.85,East,90,0.0,2.0,85,0.00,,,0.00,meteohub,2013-08-26 10:17:00,
2013-08-26 05:22:00,73.4,68.5,29.84,East,90,0.0,0.0,85,0.00,,,0.00,meteohub,2013-08-26 10:22:00,
2013-08-26 05:27:00,73.0,68.0,29.84,East,90,0.0,0.0,84,0.00,,,0.00,meteohub,2013-08-26 10:27:00,
2013-08-26 05:32:00,72.9,67.8,29.84,East,90,0.0,0.0,84,0.00,,,0.00,meteohub,2013-08-26 10:32:00,
2013-08-26 05:37:00,72.9,67.8,29.84,East,90,0.0,0.0,84,0.00,,,0.00,meteohub,2013-08-26 10:37:00,
2013-08-26 05:42:00,72.7,67.6,29.84,East,90,0.0,0.0,84,0.00,,,0.00,meteohub,2013-08-26 10:42:00,
2013-08-26 05:47:00,72.3,67.3,29.84,East,90,2.0,0.0,84,0.00,,,0.00,meteohub,2013-08-26 10:47:00,
2013-08-26 05:52:00,72.1,67.1,29.84,East,90,2.0,2.0,84,0.00,,,0.00,meteohub,2013-08-26 10:52:00,
2013-08-26 05:58:00,71.8,66.7,29.84,SE,135,4.0,4.0,84,0.00,,,0.00,meteohub,2013-08-26 10:58:00,
2013-08-26 06:03:00,71.4,66.7,29.84,SE,135,2.0,4.0,85,0.00,,,0.00,meteohub,2013-08-26 11:03:00,
2013-08-26 06:08:00,71.6,66.6,29.84,East,90,2.0,8.0,84,0.00,,,0.00,meteohub,2013-08-26 11:08:00,
2013-08-26 06:13:00,71.4,66.7,29.85,East,90,2.0,8.0,85,0.00,,,0.00,meteohub,2013-08-26 11:13:00,
2013-08-26 06:18:00,71.2,66.6,29.84,SE,135,4.0,8.0,85,0.00,,,0.00,meteohub,2013-08-26 11:18:00,
2013-08-26 06:23:00,71.4,66.7,29.85,SSE,158,4.0,4.0,85,0.00,,,0.00,meteohub,2013-08-26 11:23:00,
2013-08-26 06:28:00,71.2,66.6,29.85,SE,135,4.0,4.0,85,0.00,,,0.00,meteohub,2013-08-26 11:28:00,
2013-08-26 06:33:00,71.2,66.6,29.85,SSE,158,4.0,4.0,85,0.00,,,0.00,meteohub,2013-08-26 11:33:00,
2013-08-26 06:38:00,71.2,66.6,29.85,SSE,158,4.0,4.0,85,0.00,,,0.00,meteohub,2013-08-26 11:38:00,
2013-08-26 06:43:00,70.9,66.2,29.85,South,180,4.0,4.0,85,0.00,,,0.00,meteohub,2013-08-26 11:43:00,
2013-08-26 06:48:00,70.7,66.0,29.84,South,180,4.0,5.0,85,0.00,,,0.00,meteohub,2013-08-26 11:48:00,
2013-08-26 06:53:00,70.7,66.0,29.85,SE,135,5.0,5.0,85,0.00,,,0.00,meteohub,2013-08-26 11:53:00,
2013-08-26 06:58:00,71.2,66.6,29.85,South,180,4.0,5.0,85,0.00,,,0.00,meteohub,2013-08-26 11:58:00,
2013-08-26 07:04:00,72.1,67.5,29.85,South,180,4.0,5.0,85,0.00,,,0.00,meteohub,2013-08-26 12:04:00,
2013-08-26 07:09:00,73.0,68.2,29.85,South,180,4.0,5.0,85,0.00,,,0.00,meteohub,2013-08-26 12:09:00,
2013-08-26 07:14:00,74.3,69.8,29.85,SE,135,4.0,4.0,86,0.00,,,0.00,meteohub,2013-08-26 12:14:00,
2013-08-26 07:19:00,75.6,70.3,29.85,SE,135,3.0,5.0,84,0.00,,,0.00,meteohub,2013-08-26 12:19:00,
2013-08-26 07:24:00,77.0,71.4,29.86,SE,135,3.0,5.0,83,0.00,,,0.00,meteohub,2013-08-26 12:24:00,
2013-08-26 07:29:00,78.6,72.7,29.85,SE,135,4.0,5.0,82,0.00,,,0.00,meteohub,2013-08-26 12:29:00,
2013-08-26 07:34:00,80.1,73.4,29.85,SSE,158,4.0,4.0,80,0.00,,,0.00,meteohub,2013-08-26 12:34:00,
2013-08-26 07:39:00,81.0,73.4,29.86,SE,135,4.0,4.0,78,0.00,,,0.00,meteohub,2013-08-26 12:39:00,
2013-08-26 07:44:00,81.9,73.6,29.86,SSE,158,4.0,4.0,76,0.00,,,0.00,meteohub,2013-08-26 12:44:00,
2013-08-26 07:49:00,82.2,73.0,29.86,South,180,5.0,5.0,74,0.00,,,0.00,meteohub,2013-08-26 12:49:00,
2013-08-26 07:54:00,82.6,73.0,29.86,SE,135,4.0,5.0,73,0.00,,,0.00,meteohub,2013-08-26 12:54:00,
2013-08-26 08:00:00,83.7,74.1,29.85,South,180,4.0,6.0,73,0.00,,,0.00,meteohub,2013-08-26 13:00:00,
2013-08-26 08:05:00,84.0,73.9,29.86,SE,135,5.0,6.0,72,0.00,,,0.00,meteohub,2013-08-26 13:05:00,
2013-08-26 08:10:00,82.8,72.3,29.85,SSE,158,6.0,6.0,71,0.00,,,0.00,meteohub,2013-08-26 13:10:00,
2013-08-26 08:15:00,81.1,71.2,29.85,South,180,4.0,6.0,72,0.00,,,0.00,meteohub,2013-08-26 13:15:00,
2013-08-26 08:20:00,81.0,71.4,29.86,SE,135,5.0,6.0,73,0.00,,,0.00,meteohub,2013-08-26 13:20:00,
2013-08-26 08:25:00,81.0,72.0,29.86,SE,135,6.0,6.0,74,0.00,,,0.00,meteohub,2013-08-26 13:25:00,
2013-08-26 08:30:00,81.3,72.3,29.85,South,180,5.0,7.0,74,0.00,,,0.00,meteohub,2013-08-26 13:30:00,
2013-08-26 08:35:00,81.7,72.5,29.85,South,180,6.0,7.0,74,0.00,,,0.00,meteohub,2013-08-26 13:35:00,
2013-08-26 08:40:00,82.2,73.0,29.85,SE,135,6.0,7.0,74,0.00,,,0.00,meteohub,2013-08-26 13:40:00,
2013-08-26 08:45:00,82.6,73.0,29.85,SE,135,5.0,7.0,73,0.00,,,0.00,meteohub,2013-08-26 13:45:00,
2013-08-26 08:50:00,82.9,73.0,29.85,SSE,158,6.0,7.0,72,0.00,,,0.00,meteohub,2013-08-26 13:50:00,
2013-08-26 08:56:00,83.3,73.4,29.85,South,180,8.0,8.0,72,0.00,,,0.00,meteohub,2013-08-26 13:56:00,
2013-08-26 09:01:00,83.7,73.2,29.84,South,180,7.0,8.0,71,0.00,,,0.00,meteohub,2013-08-26 14:01:00,
2013-08-26 09:06:00,84.0,73.2,29.84,South,180,7.0,8.0,70,0.00,,,0.00,meteohub,2013-08-26 14:06:00,
2013-08-26 09:11:00,84.4,72.7,29.85,South,180,8.0,9.0,68,0.00,,,0.00,meteohub,2013-08-26 14:11:00,
2013-08-26 09:16:00,84.7,72.5,29.84,South,180,8.0,9.0,67,0.00,,,0.00,meteohub,2013-08-26 14:16:00,
2013-08-26 09:21:00,85.1,72.5,29.85,South,180,8.0,9.0,66,0.00,,,0.00,meteohub,2013-08-26 14:21:00,
2013-08-26 09:26:00,85.8,73.2,29.84,South,180,7.0,8.0,66,0.00,,,0.00,meteohub,2013-08-26 14:26:00,
2013-08-26 09:31:00,86.2,73.0,29.84,South,180,7.0,10.0,65,0.00,,,0.00,meteohub,2013-08-26 14:31:00,
2013-08-26 09:36:00,86.9,73.2,29.84,South,180,10.0,10.0,64,0.00,,,0.00,meteohub,2013-08-26 14:36:00,
2013-08-26 09:41:00,87.1,72.5,29.84,SE,135,6.0,10.0,62,0.00,,,0.00,meteohub,2013-08-26 14:41:00,
2013-08-26 09:47:00,87.3,72.7,29.84,South,180,9.0,10.0,62,0.00,,,0.00,meteohub,2013-08-26 14:47:00,
2013-08-26 09:52:00,87.4,72.3,29.84,South,180,6.0,11.0,61,0.00,,,0.00,meteohub,2013-08-26 14:52:00,
2013-08-26 09:57:00,87.6,72.0,29.83,SE,135,9.0,11.0,60,0.00,,,0.00,meteohub,2013-08-26 14:57:00,
2013-08-26 10:02:00,87.6,72.0,29.84,South,180,10.0,11.0,60,0.00,,,0.00,meteohub,2013-08-26 15:02:00,
2013-08-26 10:07:00,88.0,71.8,29.84,South,180,10.0,11.0,59,0.00,,,0.00,meteohub,2013-08-26 15:07:00,
2013-08-26 10:12:00,88.3,71.6,29.84,South,180,12.0,12.0,58,0.00,,,0.00,meteohub,2013-08-26 15:12:00,
2013-08-26 10:18:00,88.7,71.4,29.83,South,180,11.0,12.0,57,0.00,,,0.00,meteohub,2013-08-26 15:18:00,
2013-08-26 10:23:00,88.9,71.1,29.83,South,180,12.0,12.0,56,0.00,,,0.00,meteohub,2013-08-26 15:23:00,
2013-08-26 10:28:00,89.2,70.9,29.83,South,180,10.0,12.0,55,0.00,,,0.00,meteohub,2013-08-26 15:28:00,
2013-08-26 10:33:00,89.6,70.7,29.83,South,180,10.0,13.0,54,0.00,,,0.00,meteohub,2013-08-26 15:33:00,
2013-08-26 10:38:00,89.8,70.3,29.83,South,180,11.0,13.0,53,0.00,,,0.00,meteohub,2013-08-26 15:38:00,
2013-08-26 10:43:00,90.3,70.9,29.83,South,180,11.0,14.0,53,0.00,,,0.00,meteohub,2013-08-26 15:43:00,
2013-08-26 10:48:00,90.9,70.9,29.83,South,180,10.0,15.0,52,0.00,,,0.00,meteohub,2013-08-26 15:48:00,
2013-08-26 10:54:00,90.9,70.2,29.82,SW,225,11.0,15.0,51,0.00,,,0.00,meteohub,2013-08-26 15:54:00,
2013-08-26 10:59:00,90.5,70.0,29.82,South,180,10.0,15.0,51,0.00,,,0.00,meteohub,2013-08-26 15:59:00,
2013-08-26 11:04:00,90.3,70.3,29.82,South,180,11.0,14.0,52,0.00,,,0.00,meteohub,2013-08-26 16:04:00,
2013-08-26 11:09:00,90.9,70.9,29.82,South,180,15.0,15.0,52,0.00,,,0.00,meteohub,2013-08-26 16:09:00,
2013-08-26 11:14:00,91.2,70.5,29.82,South,180,13.0,15.0,51,0.00,,,0.00,meteohub,2013-08-26 16:14:00,
2013-08-26 11:19:00,91.2,70.5,29.81,South,180,11.0,15.0,51,0.00,,,0.00,meteohub,2013-08-26 16:19:00,
2013-08-26 11:24:00,91.6,70.3,29.82,South,180,12.0,15.0,50,0.00,,,0.00,meteohub,2013-08-26 16:24:00,
2013-08-26 11:30:00,91.8,70.5,29.82,South,180,11.0,13.0,50,0.00,,,0.00,meteohub,2013-08-26 16:30:00,
2013-08-26 11:35:00,92.1,70.9,29.82,SE,135,13.0,15.0,50,0.00,,,0.00,meteohub,2013-08-26 16:35:00,
2013-08-26 11:40:00,92.7,72.0,29.82,South,180,13.0,15.0,51,0.00,,,0.00,meteohub,2013-08-26 16:40:00,
2013-08-26 11:45:00,93.4,70.7,29.82,South,180,12.0,15.0,48,0.00,,,0.00,meteohub,2013-08-26 16:45:00,
2013-08-26 11:50:00,93.4,70.7,29.82,SW,225,15.0,15.0,48,0.00,,,0.00,meteohub,2013-08-26 16:50:00,
2013-08-26 11:55:00,92.5,70.5,29.81,South,180,13.0,15.0,49,0.00,,,0.00,meteohub,2013-08-26 16:55:00,
2013-08-26 12:00:00,93.2,70.5,29.81,South,180,11.0,15.0,48,0.00,,,0.00,meteohub,2013-08-26 17:00:00,
2013-08-26 12:05:00,93.7,71.1,29.82,South,180,13.0,15.0,48,0.00,,,0.00,meteohub,2013-08-26 17:05:00,
2013-08-26 12:10:00,93.9,70.7,29.81,South,180,12.0,16.0,47,0.00,,,0.00,meteohub,2013-08-26 17:10:00,
2013-08-26 12:15:00,93.9,70.7,29.81,South,180,15.0,16.0,47,0.00,,,0.00,meteohub,2013-08-26 17:15:00,
2013-08-26 12:21:00,94.6,70.7,29.81,South,180,15.0,16.0,46,0.00,,,0.00,meteohub,2013-08-26 17:21:00,
2013-08-26 12:26:00,95.0,70.9,29.81,South,180,16.0,16.0,46,0.00,,,0.00,meteohub,2013-08-26 17:26:00,
2013-08-26 12:31:00,95.4,70.7,29.81,South,180,15.0,16.0,45,0.00,,,0.00,meteohub,2013-08-26 17:31:00,
2013-08-26 12:36:00,95.4,70.0,29.80,South,180,14.0,16.0,44,0.00,,,0.00,meteohub,2013-08-26 17:36:00,
2013-08-26 12:41:00,95.4,70.7,29.80,South,180,14.0,16.0,45,0.00,,,0.00,meteohub,2013-08-26 17:41:00,
2013-08-26 12:46:00,95.9,70.5,29.80,South,180,15.0,17.0,44,0.00,,,0.00,meteohub,2013-08-26 17:46:00,
2013-08-26 12:51:00,96.6,71.1,29.79,SE,135,15.0,17.0,44,0.00,,,0.00,meteohub,2013-08-26 17:51:00,
2013-08-26 12:56:00,95.0,69.6,29.79,South,180,17.0,17.0,44,0.00,,,0.00,meteohub,2013-08-26 17:56:00,
2013-08-26 13:01:00,94.5,70.5,29.79,South,180,13.0,18.0,46,0.00,,,0.00,meteohub,2013-08-26 18:01:00,
2013-08-26 13:07:00,94.5,70.5,29.79,South,180,13.0,18.0,46,0.00,,,0.00,meteohub,2013-08-26 18:07:00,
2013-08-26 13:12:00,95.0,70.9,29.79,South,180,14.0,17.0,46,0.00,,,0.00,meteohub,2013-08-26 18:12:00,
2013-08-26 13:17:00,95.0,71.6,29.78,SE,135,17.0,17.0,47,0.00,,,0.00,meteohub,2013-08-26 18:17:00,
2013-08-26 13:22:00,95.7,70.9,29.78,South,180,17.0,17.0,45,0.00,,,0.00,meteohub,2013-08-26 18:22:00,
2013-08-26 13:27:00,96.6,71.8,29.79,South,180,15.0,20.0,45,0.00,,,0.00,meteohub,2013-08-26 18:27:00,
2013-08-26 13:32:00,97.0,70.7,29.78,SE,135,15.0,20.0,43,0.00,,,0.00,meteohub,2013-08-26 18:32:00,
2013-08-26 13:37:00,95.2,69.8,29.78,South,180,17.0,20.0,44,0.00,,,0.00,meteohub,2013-08-26 18:37:00,
2013-08-26 13:42:00,93.4,70.2,29.78,South,180,17.0,18.0,47,0.00,,,0.00,meteohub,2013-08-26 18:42:00,
2013-08-26 13:47:00,92.8,70.9,29.78,South,180,16.0,18.0,49,0.00,,,0.00,meteohub,2013-08-26 18:47:00,
2013-08-26 13:52:00,93.0,71.6,29.78,South,180,15.0,18.0,50,0.00,,,0.00,meteohub,2013-08-26 18:52:00,
2013-08-26 13:58:00,93.6,71.6,29.78,South,180,16.0,18.0,49,0.00,,,0.00,meteohub,2013-08-26 18:58:00,
2013-08-26 14:03:00,94.3,70.9,29.78,South,180,17.0,20.0,47,0.00,,,0.00,meteohub,2013-08-26 19:03:00,
2013-08-26 14:08:00,95.0,70.9,29.78,SE,135,16.0,21.0,46,0.00,,,0.00,meteohub,2013-08-26 19:08:00,
2013-08-26 14:13:00,95.2,70.5,29.77,South,180,18.0,21.0,45,0.00,,,0.00,meteohub,2013-08-26 19:13:00,
2013-08-26 14:18:00,95.4,70.7,29.77,SSE,158,17.0,21.0,45,0.00,,,0.00,meteohub,2013-08-26 19:18:00,
2013-08-26 14:23:00,95.2,71.1,29.76,South,180,18.0,21.0,46,0.00,,,0.00,meteohub,2013-08-26 19:23:00,
2013-08-26 14:28:00,95.2,71.1,29.77,South,180,23.0,23.0,46,0.00,,,0.00,meteohub,2013-08-26 19:28:00,
2013-08-26 14:33:00,94.6,71.2,29.77,SE,135,21.0,22.0,47,0.00,,,0.00,meteohub,2013-08-26 19:33:00,
2013-08-26 14:38:00,94.6,72.0,29.77,South,180,18.0,23.0,48,0.00,,,0.00,meteohub,2013-08-26 19:38:00,
2013-08-26 14:44:00,95.2,71.8,29.76,South,180,20.0,23.0,47,0.00,,,0.00,meteohub,2013-08-26 19:44:00,
2013-08-26 14:49:00,94.8,71.4,29.76,South,180,21.0,23.0,47,0.00,,,0.00,meteohub,2013-08-26 19:49:00,
2013-08-26 14:54:00,93.0,70.3,29.76,South,180,16.0,21.0,48,0.00,,,0.00,meteohub,2013-08-26 19:54:00,
2013-08-26 14:59:00,93.0,72.1,29.75,South,180,15.0,21.0,51,0.00,,,0.00,meteohub,2013-08-26 19:59:00,
2013-08-26 15:04:00,93.2,71.8,29.76,South,180,19.0,21.0,50,0.00,,,0.00,meteohub,2013-08-26 20:04:00,
2013-08-26 15:09:00,95.4,72.0,29.75,South,180,17.0,21.0,47,0.00,,,0.00,meteohub,2013-08-26 20:09:00,
2013-08-26 15:14:00,95.5,71.4,29.75,South,180,18.0,19.0,46,0.00,,,0.00,meteohub,2013-08-26 20:14:00,
2013-08-26 15:19:00,95.4,72.0,29.75,South,180,17.0,22.0,47,0.00,,,0.00,meteohub,2013-08-26 20:19:00,
2013-08-26 15:25:00,95.5,71.4,29.75,South,180,21.0,22.0,46,0.00,,,0.00,meteohub,2013-08-26 20:25:00,
2013-08-26 15:30:00,96.1,71.2,29.75,South,180,21.0,23.0,45,0.00,,,0.00,meteohub,2013-08-26 20:30:00,
2013-08-26 15:35:00,96.4,70.9,29.75,South,180,23.0,25.0,44,0.00,,,0.00,meteohub,2013-08-26 20:35:00,
2013-08-26 15:40:00,96.8,71.2,29.74,South,180,21.0,25.0,44,0.00,,,0.00,meteohub,2013-08-26 20:40:00,
2013-08-26 15:45:00,96.4,72.3,29.74,South,180,17.0,25.0,46,0.00,,,0.00,meteohub,2013-08-26 20:45:00,
2013-08-26 15:50:00,96.4,72.3,29.74,South,180,26.0,26.0,46,0.00,,,0.00,meteohub,2013-08-26 20:50:00,
2013-08-26 15:55:00,96.1,71.2,29.74,South,180,21.0,26.0,45,0.00,,,0.00,meteohub,2013-08-26 20:55:00,
2013-08-26 16:00:00,95.9,71.8,29.73,South,180,21.0,26.0,46,0.00,,,0.00,meteohub,2013-08-26 21:00:00,
2013-08-26 16:06:00,96.3,72.1,29.74,South,180,21.0,26.0,46,0.00,,,0.00,meteohub,2013-08-26 21:06:00,
2013-08-26 16:11:00,96.1,72.0,29.73,South,180,23.0,25.0,46,0.00,,,0.00,meteohub,2013-08-26 21:11:00,
2013-08-26 16:16:00,96.3,72.1,29.73,South,180,22.0,25.0,46,0.00,,,0.00,meteohub,2013-08-26 21:16:00,
2013-08-26 16:21:00,96.3,72.1,29.73,South,180,19.0,23.0,46,0.00,,,0.00,meteohub,2013-08-26 21:21:00,
2013-08-26 16:26:00,96.3,72.7,29.73,South,180,16.0,23.0,47,0.00,,,0.00,meteohub,2013-08-26 21:26:00,
2013-08-26 16:31:00,95.9,71.8,29.73,South,180,19.0,26.0,46,0.00,,,0.00,meteohub,2013-08-26 21:31:00,
2013-08-26 16:36:00,95.5,71.4,29.73,South,180,20.0,26.0,46,0.00,,,0.00,meteohub,2013-08-26 21:36:00,
2013-08-26 16:41:00,94.1,71.4,29.73,South,180,18.0,26.0,48,0.00,,,0.00,meteohub,2013-08-26 21:41:00,
2013-08-26 16:46:00,92.5,71.8,29.73,South,180,15.0,21.0,51,0.00,,,0.00,meteohub,2013-08-26 21:46:00,
2013-08-26 16:51:00,92.1,72.0,29.73,South,180,13.0,21.0,52,0.00,,,0.00,meteohub,2013-08-26 21:51:00,
2013-08-26 16:56:00,93.2,72.9,29.73,South,180,16.0,18.0,52,0.00,,,0.00,meteohub,2013-08-26 21:56:00,
2013-08-26 17:01:00,94.3,73.9,29.73,South,180,17.0,17.0,52,0.00,,,0.00,meteohub,2013-08-26 22:01:00,
2013-08-26 17:07:00,94.3,73.9,29.73,South,180,17.0,17.0,52,0.00,,,0.00,meteohub,2013-08-26 22:07:00,
2013-08-26 17:12:00,95.5,73.4,29.73,SE,135,21.0,21.0,49,0.00,,,0.00,meteohub,2013-08-26 22:12:00,
2013-08-26 17:17:00,95.5,72.7,29.73,South,180,23.0,23.0,48,0.00,,,0.00,meteohub,2013-08-26 22:17:00,
2013-08-26 17:22:00,95.5,72.1,29.73,South,180,15.0,23.0,47,0.00,,,0.00,meteohub,2013-08-26 22:22:00,
2013-08-26 17:27:00,96.1,72.5,29.73,South,180,20.0,23.0,47,0.00,,,0.00,meteohub,2013-08-26 22:27:00,
2013-08-26 17:32:00,96.1,73.2,29.72,South,180,16.0,23.0,48,0.00,,,0.00,meteohub,2013-08-26 22:32:00,
2013-08-26 17:37:00,95.5,72.1,29.71,South,180,26.0,26.0,47,0.00,,,0.00,meteohub,2013-08-26 22:37:00,
2013-08-26 17:42:00,94.8,72.7,29.71,SSE,158,15.0,26.0,49,0.00,,,0.00,meteohub,2013-08-26 22:42:00,
2013-08-26 17:47:00,94.8,72.7,29.71,South,180,16.0,26.0,49,0.00,,,0.00,meteohub,2013-08-26 22:47:00,
2013-08-26 17:52:00,94.8,73.2,29.71,South,180,15.0,26.0,50,0.00,,,0.00,meteohub,2013-08-26 22:52:00,
2013-08-26 17:57:00,94.5,72.9,29.71,South,180,15.0,23.0,50,0.00,,,0.00,meteohub,2013-08-26 22:57:00,
2013-08-26 18:02:00,94.8,73.9,29.71,South,180,17.0,21.0,51,0.00,,,0.00,meteohub,2013-08-26 23:02:00,
2013-08-26 18:07:00,94.8,73.2,29.71,South,180,17.0,21.0,50,0.00,,,0.00,meteohub,2013-08-26 23:07:00,
2013-08-26 18:12:00,94.5,73.6,29.70,South,180,16.0,22.0,51,0.00,,,0.00,meteohub,2013-08-26 23:12:00,
2013-08-26 18:18:00,94.3,73.4,29.70,South,180,19.0,22.0,51,0.00,,,0.00,meteohub,2013-08-26 23:18:00,
2013-08-26 18:23:00,93.6,72.7,29.70,South,180,19.0,22.0,51,0.00,,,0.00,meteohub,2013-08-26 23:23:00,
2013-08-26 18:28:00,93.2,72.3,29.70,South,180,18.0,21.0,51,0.00,,,0.00,meteohub,2013-08-26 23:28:00,
2013-08-26 18:33:00,93.4,72.5,29.70,South,180,18.0,23.0,51,0.00,,,0.00,meteohub,2013-08-26 23:33:00,
2013-08-26 18:38:00,93.6,72.7,29.70,South,180,18.0,23.0,51,0.00,,,0.00,meteohub,2013-08-26 23:38:00,
2013-08-26 18:43:00,93.7,72.9,29.70,South,180,17.0,23.0,51,0.00,,,0.00,meteohub,2013-08-26 23:43:00,
2013-08-26 18:48:00,93.6,72.7,29.69,South,180,15.0,21.0,51,0.00,,,0.00,meteohub,2013-08-26 23:48:00,
2013-08-26 18:53:00,93.2,72.9,29.69,South,180,17.0,19.0,52,0.00,,,0.00,meteohub,2013-08-26 23:53:00,
2013-08-26 18:58:00,92.1,72.5,29.69,South,180,18.0,19.0,53,0.00,,,0.00,meteohub,2013-08-26 23:58:00,
2013-08-26 19:03:00,91.8,72.1,29.69,South,180,15.0,22.0,53,0.00,,,0.00,meteohub,2013-08-27 00:03:00,
2013-08-26 19:08:00,91.4,72.3,29.69,SW,225,23.0,23.0,54,0.00,,,0.00,meteohub,2013-08-27 00:08:00,
2013-08-26 19:13:00,91.2,72.3,29.69,South,180,21.0,21.0,54,0.00,,,0.00,meteohub,2013-08-27 00:13:00,
2013-08-26 19:18:00,90.9,72.5,29.69,South,180,19.0,23.0,55,0.00,,,0.00,meteohub,2013-08-27 00:18:00,
2013-08-26 19:24:00,90.9,72.5,29.69,South,180,15.0,25.0,55,0.00,,,0.00,meteohub,2013-08-27 00:24:00,
2013-08-26 19:29:00,90.1,71.8,29.69,South,180,15.0,25.0,55,0.00,,,0.00,meteohub,2013-08-27 00:29:00,
2013-08-26 19:34:00,89.1,71.8,29.69,South,180,15.0,25.0,57,0.00,,,0.00,meteohub,2013-08-27 00:34:00,
2013-08-26 19:39:00,88.9,72.1,29.69,SW,225,15.0,25.0,58,0.00,,,0.00,meteohub,2013-08-27 00:39:00,
2013-08-26 19:44:00,88.9,72.7,29.69,South,180,17.0,21.0,59,0.00,,,0.00,meteohub,2013-08-27 00:44:00,
2013-08-26 19:49:00,88.5,72.3,29.69,SW,225,19.0,20.0,59,0.00,,,0.00,meteohub,2013-08-27 00:49:00,
2013-08-26 19:54:00,88.0,71.8,29.70,South,180,15.0,20.0,59,0.00,,,0.00,meteohub,2013-08-27 00:54:00,
2013-08-26 19:59:00,87.4,71.8,29.70,South,180,13.0,20.0,60,0.00,,,0.00,meteohub,2013-08-27 00:59:00,
2013-08-26 20:04:00,86.9,71.4,29.70,South,180,15.0,19.0,60,0.00,,,0.00,meteohub,2013-08-27 01:04:00,
2013-08-26 20:09:00,86.4,71.2,29.70,South,180,13.0,17.0,61,0.00,,,0.00,meteohub,2013-08-27 01:09:00,
2013-08-26 20:14:00,86.0,71.1,29.70,South,180,11.0,17.0,61,0.00,,,0.00,meteohub,2013-08-27 01:14:00,
2013-08-26 20:19:00,85.5,71.4,29.70,South,180,9.0,17.0,63,0.00,,,0.00,meteohub,2013-08-27 01:19:00,
2013-08-26 20:24:00,84.7,70.7,29.71,South,180,9.0,14.0,63,0.00,,,0.00,meteohub,2013-08-27 01:24:00,
2013-08-26 20:29:00,84.0,71.1,29.70,South,180,10.0,13.0,65,0.00,,,0.00,meteohub,2013-08-27 01:29:00,
2013-08-26 20:35:00,83.7,70.7,29.71,South,180,10.0,13.0,65,0.00,,,0.00,meteohub,2013-08-27 01:35:00,
2013-08-26 20:40:00,83.3,70.7,29.70,South,180,9.0,11.0,66,0.00,,,0.00,meteohub,2013-08-27 01:40:00,
2013-08-26 20:45:00,82.9,70.9,29.71,South,180,10.0,11.0,67,0.00,,,0.00,meteohub,2013-08-27 01:45:00,
2013-08-26 20:50:00,82.8,70.7,29.72,South,180,11.0,11.0,67,0.00,,,0.00,meteohub,2013-08-27 01:50:00,
2013-08-26 20:55:00,82.6,70.9,29.71,South,180,10.0,11.0,68,0.00,,,0.00,meteohub,2013-08-27 01:55:00,
2013-08-26 21:00:00,82.6,71.4,29.71,South,180,11.0,11.0,69,0.00,,,0.00,meteohub,2013-08-27 02:00:00,
2013-08-26 21:05:00,82.6,71.4,29.72,South,180,9.0,11.0,69,0.00,,,0.00,meteohub,2013-08-27 02:05:00,
2013-08-26 21:11:00,82.8,71.6,29.71,South,180,10.0,11.0,69,0.00,,,0.00,meteohub,2013-08-27 02:11:00,
2013-08-26 21:16:00,82.6,71.4,29.72,South,180,7.0,11.0,69,0.00,,,0.00,meteohub,2013-08-27 02:16:00,
2013-08-26 21:21:00,82.4,71.6,29.72,South,180,8.0,11.0,70,0.00,,,0.00,meteohub,2013-08-27 02:21:00,
2013-08-26 21:26:00,82.2,71.4,29.72,SSW,203,8.0,11.0,70,0.00,,,0.00,meteohub,2013-08-27 02:26:00,
2013-08-26 21:31:00,82.2,71.4,29.72,South,180,8.0,11.0,70,0.00,,,0.00,meteohub,2013-08-27 02:31:00,
2013-08-26 21:36:00,82.0,71.2,29.72,South,180,8.0,8.0,70,0.00,,,0.00,meteohub,2013-08-27 02:36:00,
2013-08-26 21:41:00,81.9,71.6,29.72,SW,225,7.0,8.0,71,0.00,,,0.00,meteohub,2013-08-27 02:41:00,
2013-08-26 21:46:00,81.7,71.4,29.73,SW,225,7.0,9.0,71,0.00,,,0.00,meteohub,2013-08-27 02:46:00,
2013-08-26 21:52:00,81.5,71.2,29.73,South,180,4.0,9.0,71,0.00,,,0.00,meteohub,2013-08-27 02:52:00,
2013-08-26 21:57:00,81.5,71.2,29.73,South,180,4.0,9.0,71,0.00,,,0.00,meteohub,2013-08-27 02:57:00,
2013-08-26 22:02:00,81.1,70.9,29.73,South,180,3.0,7.0,71,0.00,,,0.00,meteohub,2013-08-27 03:02:00,
2013-08-26 22:07:00,80.8,70.5,29.73,SE,135,4.0,5.0,71,0.00,,,0.00,meteohub,2013-08-27 03:07:00,
2013-08-26 22:12:00,80.2,70.3,29.73,SE,135,4.0,4.0,72,0.00,,,0.00,meteohub,2013-08-27 03:12:00,
2013-08-26 22:17:00,79.9,70.0,29.73,SE,135,4.0,4.0,72,0.00,,,0.00,meteohub,2013-08-27 03:17:00,
2013-08-26 22:22:00,79.5,70.2,29.73,SE,135,4.0,4.0,73,0.00,,,0.00,meteohub,2013-08-27 03:22:00,
2013-08-26 22:28:00,79.2,69.8,29.73,SE,135,4.0,4.0,73,0.00,,,0.00,meteohub,2013-08-27 03:28:00,
2013-08-26 22:33:00,79.0,69.6,29.73,SE,135,5.0,5.0,73,0.00,,,0.00,meteohub,2013-08-27 03:33:00,
2013-08-26 22:38:00,79.0,70.0,29.73,SE,135,3.0,5.0,74,0.00,,,0.00,meteohub,2013-08-27 03:38:00,
2013-08-26 22:43:00,78.8,69.8,29.72,East,90,3.0,5.0,74,0.00,,,0.00,meteohub,2013-08-27 03:43:00,
2013-08-26 22:48:00,78.4,70.2,29.72,SE,135,4.0,5.0,76,0.00,,,0.00,meteohub,2013-08-27 03:48:00,
2013-08-26 22:53:00,78.4,70.2,29.72,SE,135,3.0,5.0,76,0.00,,,0.00,meteohub,2013-08-27 03:53:00,
2013-08-26 22:58:00,78.4,70.2,29.72,East,90,2.0,4.0,76,0.00,,,0.00,meteohub,2013-08-27 03:58:00,
2013-08-26 23:01:00,78.3,70.0,29.73,East,90,3.0,4.0,76,0.00,,,0.00,meteohub,2013-08-27 04:01:00,
2013-08-26 23:02:00,78.3,70.0,29.73,East,90,3.0,4.0,76,0.00,,,0.00,meteohub,2013-08-27 04:02:00,
2013-08-26 23:03:00,78.1,70.0,29.73,East,90,4.0,4.0,76,0.00,,,0.00,meteohub,2013-08-27 04:03:00,
2013-08-26 23:05:00,78.1,70.0,29.72,ENE,68,4.0,4.0,76,0.00,,,0.00,meteohub,2013-08-27 04:05:00,
2013-08-26 23:11:00,77.7,69.6,29.72,East,90,4.0,4.0,76,0.00,,,0.00,meteohub,2013-08-27 04:11:00,
2013-08-26 23:16:00,77.4,69.6,29.72,East,90,4.0,4.0,77,0.00,,,0.00,meteohub,2013-08-27 04:16:00,
2013-08-26 23:21:00,77.4,69.6,29.72,East,90,4.0,4.0,77,0.00,,,0.00,meteohub,2013-08-27 04:21:00,
2013-08-26 23:26:00,77.2,69.8,29.72,East,90,3.0,4.0,78,0.00,,,0.00,meteohub,2013-08-27 04:26:00,
2013-08-26 23:31:00,77.0,69.6,29.73,East,90,3.0,4.0,78,0.00,,,0.00,meteohub,2013-08-27 04:31:00,
2013-08-26 23:36:00,77.0,69.6,29.73,East,90,4.0,4.0,78,0.00,,,0.00,meteohub,2013-08-27 04:36:00,
2013-08-26 23:41:00,77.0,69.6,29.73,East,90,5.0,5.0,78,0.00,,,0.00,meteohub,2013-08-27 04:41:00,
2013-08-26 23:46:00,76.6,70.0,29.72,East,90,3.0,5.0,80,0.00,,,0.00,meteohub,2013-08-27 04:46:00,
2013-08-26 23:51:00,76.5,69.8,29.73,SE,135,4.0,5.0,80,0.00,,,0.00,meteohub,2013-08-27 04:51:00,
2013-08-26 23:56:00,76.5,70.2,29.72,SE,135,4.0,5.0,81,0.00,,,0.00,meteohub,2013-08-27 04:56:00,